createdAt,value
2022-09-04T00:01:53.681Z,75.20
2022-09-04T00:04:31.614Z,75.67
2022-09-04T00:07:11.210Z,76.18
2022-09-04T00:09:49.652Z,75.26
2022-09-04T00:12:26.829Z,75.73
2022-09-04T00:15:00.715Z,75.38
2022-09-04T00:17:34.670Z,74.08
2022-09-04T00:20:06.756Z,73.35
2022-09-04T00:22:38.404Z,72.92
2022-09-04T00:25:18.670Z,74.50
2022-09-04T00:27:51.181Z,74.44
2022-09-04T00:30:21.734Z,74.27
2022-09-04T00:32:55.977Z,74.51
2022-09-04T00:35:31.516Z,74.65
2022-09-04T00:38:03.777Z,74.48
2022-09-04T00:40:35.917Z,74.82
2022-09-04T00:43:33.224Z,75.21
2022-09-04T00:46:26.502Z,75.84
2022-09-04T00:49:36.572Z,76.44
2022-09-04T00:52:12.269Z,76.15
2022-09-04T00:54:53.583Z,76.73
2022-09-04T00:57:55.122Z,76.75
2022-09-04T01:00:27.848Z,76.94
2022-09-04T01:03:18.680Z,77.42
2022-09-04T01:06:05.033Z,76.90
2022-09-04T01:08:43.294Z,77.27
2022-09-04T01:11:18.987Z,77.36
2022-09-04T01:13:59.341Z,77.84
2022-09-04T01:16:35.099Z,77.30
2022-09-04T01:19:16.986Z,77.42
2022-09-04T01:22:12.347Z,76.77
2022-09-04T01:24:55.324Z,76.64
2022-09-04T01:27:28.882Z,76.94
2022-09-04T01:30:04.504Z,76.87
2022-09-04T01:32:43.258Z,77.20
2022-09-04T01:35:23.186Z,77.59
2022-09-04T01:38:00.461Z,78.53
2022-09-04T01:40:43.294Z,78.51
2022-09-04T01:43:17.502Z,78.53
2022-09-04T01:46:19.087Z,79.04
2022-09-04T01:48:52.790Z,79.80
2022-09-04T01:51:33.832Z,80.55
2022-09-04T01:54:13.647Z,80.79
2022-09-04T01:56:49.661Z,80.59
2022-09-04T01:59:29.173Z,79.78
2022-09-04T02:02:03.095Z,79.25
2022-09-04T02:04:40.451Z,79.47
2022-09-04T02:07:18.079Z,79.22
2022-09-04T02:09:54.482Z,79.40
2022-09-04T02:12:36.113Z,80.21
2022-09-04T02:15:13.397Z,80.13
2022-09-04T02:17:48.941Z,79.85
2022-09-04T02:20:26.310Z,79.52
2022-09-04T02:23:12.065Z,79.61
2022-09-04T02:25:49.179Z,79.73
2022-09-04T02:28:28.231Z,80.19
2022-09-04T02:31:06.439Z,80.38
2022-09-04T02:33:44.349Z,80.49
2022-09-04T02:36:19.777Z,81.16
2022-09-04T02:38:57.102Z,81.32
2022-09-04T02:41:32.371Z,81.22
2022-09-04T02:44:15.726Z,81.16
2022-09-04T02:46:57.117Z,81.68
2022-09-04T02:49:36.951Z,81.42
2022-09-04T02:52:18.293Z,81.15
2022-09-04T02:54:59.762Z,81.20
2022-09-04T02:57:40.460Z,80.94
2022-09-04T03:00:14.743Z,81.54
2022-09-04T03:02:54.438Z,81.88
2022-09-04T03:05:25.851Z,81.97
2022-09-04T03:08:01.268Z,81.96
2022-09-04T03:10:34.591Z,82.16
2022-09-04T03:13:09.938Z,82.85
2022-09-04T03:15:45.256Z,83.02
2022-09-04T03:18:20.999Z,83.46
2022-09-04T03:20:55.626Z,84.01
2022-09-04T03:23:31.644Z,83.71
2022-09-04T03:26:19.384Z,83.71
2022-09-04T03:28:58.499Z,83.83
2022-09-04T03:31:32.138Z,84.27
2022-09-04T03:34:13.712Z,83.98
2022-09-04T03:36:53.037Z,84.32
2022-09-04T03:39:31.971Z,82.94
2022-09-04T03:42:11.028Z,82.79
2022-09-04T03:44:52.361Z,82.56
2022-09-04T03:47:30.933Z,82.91
2022-09-04T03:50:11.235Z,83.23
2022-09-04T03:52:47.039Z,83.67
2022-09-04T03:55:36.355Z,83.59
2022-09-04T03:58:16.974Z,83.97
2022-09-04T04:00:51.728Z,84.17
2022-09-04T04:03:37.852Z,84.61
2022-09-04T04:06:24.674Z,84.87
2022-09-04T04:09:28.806Z,84.58
2022-09-04T04:12:13.415Z,84.56
2022-09-04T04:15:16.734Z,85.03
2022-09-04T04:18:13.286Z,85.93
2022-09-04T04:20:45.987Z,85.27
2022-09-04T04:23:48.022Z,85.50
2022-09-04T04:26:22.666Z,85.70
2022-09-04T04:29:08.608Z,86.00
2022-09-04T04:32:10.483Z,86.64
2022-09-04T04:34:48.587Z,86.63
2022-09-04T04:37:27.930Z,86.87
2022-09-04T04:40:04.147Z,87.04
2022-09-04T04:42:44.107Z,87.17
2022-09-04T04:45:52.507Z,87.21
2022-09-04T04:49:04.254Z,87.03
2022-09-04T04:51:58.303Z,87.80
2022-09-04T04:54:42.705Z,88.12
2022-09-04T04:57:28.027Z,87.17
2022-09-04T05:00:06.658Z,86.97
2022-09-04T05:02:44.172Z,86.55
2022-09-04T05:05:18.405Z,86.75
2022-09-04T05:08:06.340Z,87.12
2022-09-04T05:10:43.410Z,87.62
2022-09-04T05:13:21.534Z,87.50
2022-09-04T05:16:08.896Z,87.14
2022-09-04T05:18:46.407Z,87.33
2022-09-04T05:21:22.716Z,87.31
2022-09-04T05:23:59.157Z,88.09
2022-09-04T05:26:34.372Z,87.64
2022-09-04T05:29:12.122Z,87.16
2022-09-04T05:31:49.402Z,87.23
2022-09-04T05:34:27.887Z,87.29
2022-09-04T05:37:08.869Z,86.91
2022-09-04T05:39:49.373Z,86.74
2022-09-04T05:42:45.415Z,86.90
2022-09-04T05:45:24.568Z,85.81
2022-09-04T05:48:03.000Z,86.78
2022-09-04T05:50:58.738Z,86.48
2022-09-04T05:54:08.547Z,86.11
2022-09-04T05:57:05.516Z,85.96
2022-09-04T06:00:04.259Z,85.95
2022-09-04T06:03:32.412Z,85.36
2022-09-04T06:06:20.477Z,84.54
2022-09-04T06:09:21.399Z,83.40
2022-09-04T06:12:06.200Z,82.67
2022-09-04T06:14:58.740Z,81.84
2022-09-04T06:18:08.868Z,81.58
2022-09-04T06:21:06.045Z,80.32
2022-09-04T06:23:50.538Z,79.82
2022-09-04T06:26:32.409Z,78.39
2022-09-04T06:29:14.576Z,79.13
2022-09-04T06:32:30.092Z,78.91
2022-09-04T06:35:16.220Z,77.13
2022-09-04T06:37:58.717Z,77.14
2022-09-04T06:40:41.846Z,74.82
2022-09-04T06:43:24.251Z,73.93
2022-09-04T06:46:11.585Z,74.11
2022-09-04T06:48:55.152Z,73.66
2022-09-04T06:51:36.386Z,71.92
2022-09-04T06:54:16.971Z,72.52
2022-09-04T06:56:59.465Z,72.11
2022-09-04T06:59:55.632Z,71.62
2022-09-04T07:02:42.501Z,73.42
2022-09-04T07:05:20.712Z,72.10
2022-09-04T07:08:02.254Z,72.22
2022-09-04T07:10:34.556Z,70.94
2022-09-04T07:13:32.401Z,71.70
2022-09-04T07:16:31.882Z,71.09
2022-09-04T07:19:18.720Z,70.48
2022-09-04T07:21:58.886Z,70.71
2022-09-04T07:24:55.514Z,69.30
2022-09-04T07:27:37.731Z,67.89
2022-09-04T07:30:08.258Z,66.48
2022-09-04T07:32:43.197Z,66.08
2022-09-04T07:35:17.582Z,66.32
2022-09-04T07:37:58.333Z,67.83
2022-09-04T07:40:31.881Z,68.20
2022-09-04T07:43:09.430Z,65.94
2022-09-04T07:45:48.751Z,65.36
2022-09-04T07:48:28.600Z,64.64
2022-09-04T07:51:04.892Z,64.27
2022-09-04T07:54:00.751Z,62.42
2022-09-04T07:56:46.004Z,64.08
2022-09-04T07:59:39.430Z,60.54
2022-09-04T08:02:34.731Z,60.39
2022-09-04T08:05:21.321Z,60.92
2022-09-04T08:08:12.992Z,59.21
2022-09-04T08:10:48.215Z,60.83
2022-09-04T08:13:35.415Z,59.01
2022-09-04T08:16:08.940Z,56.66
2022-09-04T08:19:01.550Z,56.71
2022-09-04T08:21:31.790Z,58.09
2022-09-04T08:24:19.432Z,57.29
2022-09-04T08:26:58.009Z,54.46
2022-09-04T08:29:41.105Z,56.41
2022-09-04T08:32:26.647Z,56.78
2022-09-04T08:35:23.226Z,56.49
2022-09-04T08:38:04.941Z,56.63
2022-09-04T08:41:10.295Z,55.45
2022-09-04T08:44:05.809Z,56.36
2022-09-04T08:47:01.725Z,54.07
2022-09-04T08:50:11.931Z,53.21
2022-09-04T08:53:20.597Z,54.42
2022-09-04T08:55:58.371Z,53.79
2022-09-04T08:58:56.327Z,54.78
2022-09-04T09:01:58.490Z,53.90
2022-09-04T09:05:03.823Z,52.36
2022-09-04T09:08:06.215Z,52.27
2022-09-04T09:11:06.962Z,53.06
2022-09-04T09:14:08.023Z,53.80
2022-09-04T09:16:44.487Z,54.27
2022-09-04T09:19:23.181Z,54.84
2022-09-04T09:22:12.738Z,54.79
2022-09-04T09:25:16.001Z,55.92
2022-09-04T09:28:16.654Z,54.01
2022-09-04T09:31:11.124Z,55.29
2022-09-04T09:34:29.894Z,54.67
2022-09-04T09:37:30.998Z,55.56
2022-09-04T09:40:26.465Z,54.46
2022-09-04T09:43:21.422Z,54.71
2022-09-04T09:46:22.639Z,54.85
2022-09-04T09:49:14.895Z,56.16
2022-09-04T09:52:18.572Z,55.29
2022-09-04T09:55:30.034Z,55.53
2022-09-04T09:58:28.916Z,56.52
2022-09-04T10:01:09.621Z,54.99
2022-09-04T10:04:11.897Z,55.92
2022-09-04T10:07:04.162Z,56.66
2022-09-04T10:09:55.878Z,54.75
2022-09-04T10:13:02.543Z,56.40
2022-09-04T10:16:22.333Z,54.83
2022-09-04T10:19:22.613Z,53.79
2022-09-04T10:22:09.169Z,55.01
2022-09-04T10:25:10.748Z,56.04
2022-09-04T10:28:18.442Z,54.61
2022-09-04T10:31:13.140Z,54.72
2022-09-04T10:33:58.499Z,53.75
2022-09-04T10:36:36.437Z,54.03
2022-09-04T10:39:35.430Z,55.58
2022-09-04T10:42:09.986Z,54.62
2022-09-04T10:44:46.101Z,53.71
2022-09-04T10:47:28.169Z,56.13
2022-09-04T10:50:19.171Z,55.02
2022-09-04T10:53:11.854Z,52.31
2022-09-04T10:56:09.978Z,55.34
2022-09-04T10:59:02.958Z,54.15
2022-09-04T11:02:14.968Z,52.97
2022-09-04T11:05:09.533Z,52.81
2022-09-04T11:07:49.418Z,51.84
2022-09-04T11:10:32.716Z,50.78
2022-09-04T11:13:40.644Z,53.20
2022-09-04T11:16:32.164Z,51.97
2022-09-04T11:19:39.326Z,50.93
2022-09-04T11:22:46.703Z,50.25
2022-09-04T11:26:05.938Z,48.90
2022-09-04T11:28:51.314Z,50.14
2022-09-04T11:31:34.803Z,50.90
2022-09-04T11:34:50.868Z,53.53
2022-09-04T11:37:49.833Z,51.49
2022-09-04T11:40:34.955Z,51.60
2022-09-04T11:43:22.383Z,53.06
2022-09-04T11:46:13.633Z,51.64
2022-09-04T11:49:09.850Z,50.82
2022-09-04T11:52:04.384Z,50.63
2022-09-04T11:55:06.631Z,49.57
2022-09-04T11:57:50.248Z,48.91
2022-09-04T12:00:19.958Z,48.55
2022-09-04T12:03:32.182Z,47.74
2022-09-04T12:06:09.431Z,46.42
2022-09-04T12:09:05.406Z,45.93
2022-09-04T12:12:11.061Z,47.05
2022-09-04T12:14:55.527Z,48.79
2022-09-04T12:17:56.601Z,48.44
2022-09-04T12:21:06.670Z,47.99
2022-09-04T12:23:50.274Z,48.37
2022-09-04T12:26:58.128Z,48.82
2022-09-04T12:29:58.232Z,47.80
2022-09-04T12:33:02.941Z,46.82
2022-09-04T12:35:50.859Z,46.74
2022-09-04T12:38:52.276Z,47.36
2022-09-04T12:41:28.800Z,47.01
2022-09-04T12:44:08.733Z,48.10
2022-09-04T12:47:02.784Z,47.09
2022-09-04T12:49:58.188Z,45.54
2022-09-04T12:52:39.236Z,46.84
2022-09-04T12:55:15.903Z,46.00
2022-09-04T12:57:55.594Z,45.59
2022-09-04T13:00:40.719Z,44.96
2022-09-04T13:03:30.076Z,45.21
2022-09-04T13:06:08.491Z,44.41
2022-09-04T13:08:49.082Z,44.30
2022-09-04T13:11:32.250Z,43.66
2022-09-04T13:14:17.044Z,44.40
2022-09-04T13:16:55.104Z,44.85
2022-09-04T13:19:33.948Z,44.32
2022-09-04T13:22:13.206Z,43.72
2022-09-04T13:24:52.348Z,42.99
2022-09-04T13:27:34.549Z,43.85
2022-09-04T13:30:07.819Z,44.08
2022-09-04T13:33:00.531Z,43.36
2022-09-04T13:35:43.928Z,43.18
2022-09-04T13:38:28.833Z,44.57
2022-09-04T13:41:35.683Z,44.43
2022-09-04T13:44:29.451Z,45.08
2022-09-04T13:47:03.709Z,44.52
2022-09-04T13:49:44.570Z,42.92
2022-09-04T13:52:19.328Z,42.72
2022-09-04T13:54:52.861Z,43.05
2022-09-04T13:57:25.891Z,42.49
2022-09-04T13:59:57.199Z,42.65
2022-09-04T14:02:28.758Z,42.86
2022-09-04T14:05:02.617Z,41.54
2022-09-04T14:07:36.665Z,40.91
2022-09-04T14:10:13.586Z,42.14
2022-09-04T14:13:05.384Z,41.83
2022-09-04T14:15:46.886Z,42.10
2022-09-04T14:18:45.454Z,41.34
2022-09-04T14:21:23.755Z,42.57
2022-09-04T14:24:03.288Z,43.53
2022-09-04T14:26:40.268Z,43.18
2022-09-04T14:29:22.403Z,43.90
2022-09-04T14:32:04.624Z,43.31
2022-09-04T14:34:44.542Z,42.21
2022-09-04T14:37:28.616Z,41.95
2022-09-04T14:40:03.596Z,41.46
2022-09-04T14:42:45.084Z,41.76
2022-09-04T14:46:00.695Z,41.40
2022-09-04T14:48:29.449Z,41.39
2022-09-04T14:51:15.450Z,40.14
2022-09-04T14:53:49.222Z,40.15
2022-09-04T14:56:28.374Z,40.71
2022-09-04T14:59:03.164Z,40.05
2022-09-04T15:01:36.793Z,40.59
2022-09-04T15:04:13.226Z,40.00
2022-09-04T15:07:07.791Z,40.01
2022-09-04T15:09:38.576Z,40.81
2022-09-04T15:12:24.597Z,41.04
2022-09-04T15:14:58.241Z,41.66
2022-09-04T15:17:30.198Z,41.88
2022-09-04T15:20:03.161Z,41.83
2022-09-04T15:22:37.665Z,42.21
2022-09-04T15:25:09.372Z,42.34
2022-09-04T15:27:47.049Z,41.68
2022-09-04T15:30:21.652Z,42.09
2022-09-04T15:32:51.034Z,41.54
2022-09-04T15:35:26.317Z,41.57
2022-09-04T15:38:07.826Z,42.39
2022-09-04T15:40:54.370Z,42.59
2022-09-04T15:43:38.898Z,42.43
2022-09-04T15:46:12.406Z,42.98
2022-09-04T15:48:53.167Z,42.11
2022-09-04T15:51:28.673Z,42.29
2022-09-04T15:54:21.315Z,42.17
2022-09-04T15:56:59.965Z,42.60
2022-09-04T15:59:40.648Z,42.80
2022-09-04T16:02:20.397Z,42.68
2022-09-04T16:05:00.058Z,43.35
2022-09-04T16:07:40.302Z,42.88
2022-09-04T16:10:16.683Z,42.91
2022-09-04T16:12:52.738Z,43.09
2022-09-04T16:15:30.785Z,43.24
2022-09-04T16:18:09.908Z,43.04
2022-09-04T16:20:46.993Z,43.32
2022-09-04T16:23:18.608Z,43.27
2022-09-04T16:25:50.338Z,43.67
2022-09-04T16:28:26.703Z,44.36
2022-09-04T16:30:59.247Z,45.08
2022-09-04T16:33:31.665Z,44.17
2022-09-04T16:36:04.502Z,45.04
2022-09-04T16:38:40.577Z,45.08
2022-09-04T16:41:14.984Z,45.72
2022-09-04T16:44:08.980Z,45.06
2022-09-04T16:46:43.669Z,44.97
2022-09-04T16:49:23.087Z,45.70
2022-09-04T16:52:01.296Z,45.52
2022-09-04T16:54:35.491Z,45.45
2022-09-04T16:57:14.792Z,45.63
2022-09-04T16:59:45.944Z,45.87
2022-09-04T17:02:29.438Z,45.74
2022-09-04T17:05:17.683Z,45.83
2022-09-04T17:07:51.628Z,46.39
2022-09-04T17:10:36.656Z,46.56
2022-09-04T17:13:12.250Z,46.96
2022-09-04T17:15:53.974Z,48.04
2022-09-04T17:18:26.113Z,47.78
2022-09-04T17:23:59.429Z,47.84
2022-09-04T17:28:56.808Z,48.14
2022-09-04T17:29:10.938Z,48.33
2022-09-04T17:29:47.397Z,49.04
2022-09-04T17:34:31.475Z,50.96
2022-09-04T17:40:44.351Z,50.49
2022-09-04T17:40:57.533Z,51.04
2022-09-04T17:41:40.012Z,50.73
2022-09-04T17:44:25.286Z,51.82
2022-09-04T17:47:04.633Z,54.15
2022-09-04T17:49:35.102Z,55.83
2022-09-04T17:52:09.101Z,56.25
2022-09-04T17:54:42.354Z,56.48
2022-09-04T17:57:26.561Z,57.83
2022-09-04T18:00:01.975Z,57.67
2022-09-04T18:02:42.263Z,58.71
2022-09-04T18:05:19.975Z,59.00
2022-09-04T18:08:10.051Z,59.80
2022-09-04T18:10:52.400Z,60.92
2022-09-04T18:13:37.461Z,60.57
2022-09-04T18:16:20.513Z,61.50
2022-09-04T18:18:52.929Z,61.95
2022-09-04T18:21:26.140Z,62.87
2022-09-04T18:24:02.198Z,62.31
2022-09-04T18:26:40.560Z,63.01
2022-09-04T18:34:31.035Z,63.65
2022-09-04T18:37:19.204Z,64.69
2022-09-04T18:37:24.549Z,63.84
2022-09-04T18:38:38.511Z,64.20
2022-09-04T18:45:08.609Z,65.13
2022-09-04T18:50:28.303Z,65.00
2022-09-04T18:50:37.752Z,64.60
2022-09-04T18:50:46.368Z,65.01
2022-09-04T18:53:05.882Z,65.61
2022-09-04T18:55:42.336Z,65.76
2022-09-04T18:58:36.861Z,66.26
2022-09-04T19:01:13.383Z,66.75
2022-09-04T19:03:46.966Z,65.84
2022-09-04T19:06:18.738Z,65.91
2022-09-04T19:08:50.770Z,66.43
2022-09-04T19:11:26.721Z,66.84
2022-09-04T19:14:10.167Z,66.52
2022-09-04T19:16:44.092Z,65.24
2022-09-04T19:19:20.834Z,64.89
2022-09-04T19:21:58.714Z,65.50
2022-09-04T19:24:35.720Z,66.21
2022-09-04T19:27:26.751Z,66.87
2022-09-04T19:30:18.464Z,67.05
2022-09-04T19:33:03.062Z,65.59
2022-09-04T19:35:38.386Z,66.48
2022-09-04T19:45:12.528Z,67.38
2022-09-04T19:46:05.459Z,67.79
2022-09-04T19:46:26.611Z,68.40
2022-09-04T19:47:05.244Z,68.29
2022-09-04T19:53:15.567Z,68.94
2022-09-04T19:53:34.224Z,68.70
2022-09-04T19:55:41.051Z,68.80
2022-09-04T19:58:11.785Z,68.91
2022-09-04T20:00:49.127Z,69.11
2022-09-04T20:03:28.966Z,69.44
2022-09-04T20:06:20.034Z,69.49
2022-09-04T20:08:53.407Z,70.14
2022-09-04T20:11:35.011Z,70.53
2022-09-04T20:14:13.835Z,70.47
2022-09-04T20:16:52.044Z,70.88
2022-09-04T20:19:28.871Z,71.12
2022-09-04T20:22:01.870Z,70.76
2022-09-04T20:24:39.633Z,70.96
2022-09-04T20:27:15.795Z,71.80
2022-09-04T20:29:55.008Z,71.66
2022-09-04T20:32:28.456Z,71.47
2022-09-04T20:35:14.060Z,72.26
2022-09-04T20:37:53.739Z,72.03
2022-09-04T20:40:31.846Z,70.93
2022-09-04T20:43:12.366Z,72.05
2022-09-04T20:48:51.096Z,71.78
2022-09-04T20:52:45.832Z,72.61
2022-09-04T20:52:55.062Z,73.03
2022-09-04T20:54:51.809Z,72.60
2022-09-04T21:03:12.415Z,73.58
2022-09-04T21:03:21.497Z,73.49
2022-09-04T21:03:30.679Z,73.92
2022-09-04T21:06:14.151Z,74.07
2022-09-04T21:08:51.399Z,74.71
2022-09-04T21:11:40.754Z,74.85
2022-09-04T21:14:16.666Z,75.35
2022-09-04T21:17:17.050Z,75.61
2022-09-04T21:20:20.722Z,75.93
2022-09-04T21:23:06.069Z,75.94
2022-09-04T21:25:45.157Z,75.82
2022-09-04T21:28:37.270Z,76.37
2022-09-04T21:31:13.953Z,76.63
2022-09-04T21:33:54.638Z,76.47
2022-09-04T21:36:32.072Z,77.51
2022-09-04T21:39:34.530Z,77.48
2022-09-04T21:42:26.035Z,77.75
2022-09-04T21:45:33.397Z,77.91
2022-09-04T21:48:37.866Z,78.66
2022-09-04T21:51:34.894Z,79.00
2022-09-04T21:55:08.516Z,78.27
2022-09-04T22:02:27.864Z,79.47
2022-09-04T22:02:45.495Z,80.16
2022-09-04T22:03:31.532Z,80.27
2022-09-04T22:06:10.386Z,80.03
2022-09-04T22:13:30.304Z,80.14
2022-09-04T22:13:45.998Z,81.01
2022-09-04T22:14:48.551Z,80.43
2022-09-04T22:17:41.388Z,80.93
2022-09-04T22:20:22.446Z,80.65
2022-09-04T22:23:27.038Z,80.88
2022-09-04T22:26:24.268Z,81.77
2022-09-04T22:29:25.646Z,83.17
2022-09-04T22:32:34.221Z,82.61
2022-09-04T22:35:46.032Z,82.97
2022-09-04T22:38:43.488Z,82.83
2022-09-04T22:41:34.729Z,83.69
2022-09-04T22:44:13.591Z,84.30
2022-09-04T22:47:25.793Z,84.67
2022-09-04T22:50:16.440Z,84.19
2022-09-04T22:53:06.308Z,84.40
2022-09-04T22:56:08.406Z,85.06
2022-09-04T22:59:22.529Z,84.92
2022-09-04T23:02:13.949Z,84.92
2022-09-04T23:04:54.960Z,86.18
2022-09-04T23:13:01.325Z,85.90
2022-09-04T23:13:46.988Z,85.46
2022-09-04T23:14:22.228Z,85.66
2022-09-04T23:17:07.432Z,85.28
2022-09-04T23:26:37.083Z,85.36
2022-09-04T23:26:41.675Z,85.58
2022-09-04T23:26:49.398Z,85.51
2022-09-04T23:29:45.208Z,85.55
2022-09-04T23:32:28.464Z,85.73
2022-09-04T23:35:15.889Z,86.93
2022-09-04T23:38:11.616Z,87.12
2022-09-04T23:40:45.065Z,86.65
2022-09-04T23:43:35.315Z,88.14
2022-09-04T23:46:18.022Z,87.86
2022-09-04T23:49:12.542Z,87.97
2022-09-04T23:51:47.965Z,87.59
2022-09-04T23:54:37.197Z,86.55
2022-09-04T23:57:25.891Z,86.65
